N864MC KSAN-KLAX
Flight info
| Callsign | N864MC |
|---|---|
| Flight time | 0h 21m |
| Altitude | 10000 |
| Route | CWARD2 SLI |
| Aircraft | C700/M-SBDGHM1RWXY/LB2 |
Departure
| Time | 2026-04-20 05:08 |
|---|---|
| Airport | San Diego International Airport (KSAN) |
Arrival
| Time | 2026-04-20 05:30 |
|---|---|
| Airport | Los Angeles International Airport (KLAX) |
| Time | Latitude | Longitude | Altitude | Speed | Heading |
|---|---|---|---|---|---|
| 2026-04-20 04:59 | 32.73358 | -117.17900 | 20 ft | 0 kts | 184° |
| 2026-04-20 05:02 | 32.73366 | -117.17900 | 21 ft | 2 kts | 184° |
| 2026-04-20 05:03 | 32.73380 | -117.17893 | 22 ft | 2 kts | 252° |
| 2026-04-20 05:03 | 32.73381 | -117.17888 | 22 ft | 0 kts | 262° |
| 2026-04-20 05:04 | 32.73371 | -117.17919 | 22 ft | 9 kts | 246° |
| 2026-04-20 05:05 | 32.73307 | -117.17968 | 19 ft | 15 kts | 195° |
| 2026-04-20 05:05 | 32.73231 | -117.17949 | 16 ft | 13 kts | 121° |
| 2026-04-20 05:05 | 32.73194 | -117.17829 | 17 ft | 18 kts | 105° |
| 2026-04-20 05:05 | 32.73162 | -117.17693 | 17 ft | 11 kts | 107° |
| 2026-04-20 05:06 | 32.73137 | -117.17597 | 16 ft | 14 kts | 113° |
| 2026-04-20 05:06 | 32.73129 | -117.17584 | 16 ft | 0 kts | 136° |
| 2026-04-20 05:07 | 32.73108 | -117.17562 | 16 ft | 10 kts | 143° |
| 2026-04-20 05:07 | 32.73033 | -117.17539 | 17 ft | 13 kts | 221° |
| 2026-04-20 05:07 | 32.73045 | -117.17689 | 15 ft | 26 kts | 281° |
| 2026-04-20 05:07 | 32.73132 | -117.18037 | 14 ft | 83 kts | 285° |
| 2026-04-20 05:08 | 32.73391 | -117.19080 | 213 ft | 163 kts | 288° |
| 2026-04-20 05:08 | 32.73743 | -117.20353 | 1615 ft | 171 kts | 290° |
| 2026-04-20 05:08 | 32.74405 | -117.21632 | 2785 ft | 196 kts | 308° |
| 2026-04-20 05:08 | 32.75262 | -117.22983 | 4145 ft | 219 kts | 304° |
| 2026-04-20 05:09 | 32.76173 | -117.24668 | 5531 ft | 263 kts | 300° |
| 2026-04-20 05:09 | 32.77180 | -117.26637 | 7207 ft | 292 kts | 300° |
| 2026-04-20 05:09 | 32.78304 | -117.28780 | 9123 ft | 318 kts | 300° |
| 2026-04-20 05:09 | 32.79563 | -117.31156 | 9978 ft | 364 kts | 301° |
| 2026-04-20 05:10 | 32.81079 | -117.33615 | 10004 ft | 375 kts | 306° |
| 2026-04-20 05:10 | 32.82699 | -117.36068 | 10003 ft | 377 kts | 306° |
| 2026-04-20 05:10 | 32.84300 | -117.38544 | 10005 ft | 378 kts | 306° |
| 2026-04-20 05:10 | 32.85895 | -117.41049 | 10002 ft | 379 kts | 306° |
| 2026-04-20 05:11 | 32.87501 | -117.43546 | 9999 ft | 380 kts | 306° |
| 2026-04-20 05:11 | 32.89117 | -117.46043 | 9992 ft | 380 kts | 306° |
| 2026-04-20 05:11 | 32.90706 | -117.48511 | 9987 ft | 380 kts | 306° |
| 2026-04-20 05:11 | 32.92313 | -117.51018 | 9987 ft | 380 kts | 306° |
| 2026-04-20 05:12 | 32.93921 | -117.53524 | 9996 ft | 380 kts | 306° |
| 2026-04-20 05:12 | 32.95532 | -117.56030 | 9987 ft | 380 kts | 306° |
| 2026-04-20 05:12 | 32.97141 | -117.58537 | 9985 ft | 380 kts | 306° |
| 2026-04-20 05:12 | 32.98748 | -117.61045 | 9986 ft | 381 kts | 306° |
| 2026-04-20 05:13 | 33.00356 | -117.63556 | 9983 ft | 381 kts | 306° |
| 2026-04-20 05:13 | 33.01946 | -117.66040 | 9982 ft | 381 kts | 306° |
| 2026-04-20 05:13 | 33.03553 | -117.68551 | 9985 ft | 381 kts | 306° |
| 2026-04-20 05:13 | 33.05160 | -117.71065 | 9985 ft | 381 kts | 306° |
| 2026-04-20 05:14 | 33.06891 | -117.73466 | 9989 ft | 383 kts | 315° |
| 2026-04-20 05:14 | 33.08921 | -117.75521 | 9982 ft | 383 kts | 319° |
| 2026-04-20 05:14 | 33.10955 | -117.77584 | 9984 ft | 383 kts | 318° |
| 2026-04-20 05:14 | 33.12977 | -117.79672 | 9982 ft | 383 kts | 318° |
| 2026-04-20 05:15 | 33.15011 | -117.81745 | 9986 ft | 384 kts | 318° |
| 2026-04-20 05:15 | 33.17022 | -117.83772 | 9988 ft | 383 kts | 319° |
| 2026-04-20 05:15 | 33.19254 | -117.85539 | 9979 ft | 385 kts | 332° |
| 2026-04-20 05:15 | 33.21738 | -117.86733 | 9978 ft | 386 kts | 343° |
| 2026-04-20 05:16 | 33.24371 | -117.87429 | 9984 ft | 386 kts | 348° |
| 2026-04-20 05:16 | 33.26972 | -117.88071 | 9977 ft | 386 kts | 347° |
| 2026-04-20 05:16 | 33.29640 | -117.88749 | 9978 ft | 386 kts | 347° |
| 2026-04-20 05:16 | 33.32231 | -117.89394 | 9977 ft | 386 kts | 348° |
| 2026-04-20 05:17 | 33.34865 | -117.90043 | 9982 ft | 387 kts | 348° |
| 2026-04-20 05:17 | 33.37516 | -117.90704 | 9979 ft | 387 kts | 348° |
| 2026-04-20 05:17 | 33.40119 | -117.91526 | 9980 ft | 386 kts | 342° |
| 2026-04-20 05:17 | 33.42687 | -117.92486 | 9982 ft | 386 kts | 342° |
| 2026-04-20 05:18 | 33.45264 | -117.93430 | 9979 ft | 387 kts | 342° |
| 2026-04-20 05:18 | 33.47773 | -117.94327 | 9965 ft | 351 kts | 343° |
| 2026-04-20 05:18 | 33.49916 | -117.95098 | 8798 ft | 310 kts | 342° |
| 2026-04-20 05:18 | 33.51960 | -117.95852 | 8401 ft | 298 kts | 343° |
| 2026-04-20 05:19 | 33.53941 | -117.96575 | 7767 ft | 296 kts | 343° |
| 2026-04-20 05:19 | 33.55244 | -117.97048 | 7369 ft | 294 kts | 343° |
| 2026-04-20 05:19 | 33.57826 | -117.97986 | 6609 ft | 290 kts | 343° |
| 2026-04-20 05:19 | 33.59753 | -117.98688 | 6025 ft | 287 kts | 343° |
| 2026-04-20 05:20 | 33.61655 | -117.99382 | 5455 ft | 284 kts | 343° |
| 2026-04-20 05:20 | 33.62905 | -117.99837 | 5089 ft | 282 kts | 343° |
| 2026-04-20 05:20 | 33.64728 | -118.00503 | 4999 ft | 262 kts | 343° |
| 2026-04-20 05:20 | 33.66400 | -118.01141 | 4986 ft | 244 kts | 341° |
| 2026-04-20 05:21 | 33.68056 | -118.01861 | 4957 ft | 267 kts | 340° |
| 2026-04-20 05:21 | 33.69835 | -118.02621 | 4966 ft | 275 kts | 341° |
| 2026-04-20 05:21 | 33.71669 | -118.03377 | 4973 ft | 280 kts | 341° |
| 2026-04-20 05:21 | 33.73487 | -118.04132 | 4969 ft | 281 kts | 341° |
| 2026-04-20 05:22 | 33.75357 | -118.04915 | 4971 ft | 281 kts | 341° |
| 2026-04-20 05:22 | 33.77185 | -118.05678 | 4972 ft | 281 kts | 341° |
| 2026-04-20 05:22 | 33.79028 | -118.06444 | 4972 ft | 276 kts | 341° |
| 2026-04-20 05:22 | 33.80778 | -118.07173 | 4961 ft | 254 kts | 341° |
| 2026-04-20 05:23 | 33.82394 | -118.07848 | 4951 ft | 240 kts | 341° |
| 2026-04-20 05:23 | 33.83953 | -118.08499 | 4955 ft | 236 kts | 341° |
| 2026-04-20 05:23 | 33.85509 | -118.09148 | 4982 ft | 236 kts | 341° |
| 2026-04-20 05:23 | 33.87049 | -118.09791 | 4981 ft | 236 kts | 341° |
| 2026-04-20 05:24 | 33.88598 | -118.10438 | 4984 ft | 236 kts | 341° |
| 2026-04-20 05:24 | 33.90203 | -118.10769 | 4983 ft | 230 kts | 359° |
| 2026-04-20 05:24 | 33.91750 | -118.10843 | 4979 ft | 216 kts | 354° |
| 2026-04-20 05:24 | 33.93149 | -118.11341 | 4977 ft | 206 kts | 333° |
| 2026-04-20 05:25 | 33.94310 | -118.12288 | 4979 ft | 203 kts | 320° |
| 2026-04-20 05:25 | 33.95313 | -118.13478 | 4980 ft | 202 kts | 302° |
| 2026-04-20 05:25 | 33.95867 | -118.15013 | 4981 ft | 200 kts | 281° |
| 2026-04-20 05:25 | 33.95955 | -118.16679 | 4988 ft | 198 kts | 262° |
| 2026-04-20 05:26 | 33.95753 | -118.18325 | 5000 ft | 198 kts | 260° |
| 2026-04-20 05:26 | 33.95599 | -118.19977 | 4544 ft | 208 kts | 262° |
| 2026-04-20 05:26 | 33.95427 | -118.21728 | 3810 ft | 199 kts | 261° |
| 2026-04-20 05:26 | 33.95248 | -118.23356 | 3770 ft | 203 kts | 261° |
| 2026-04-20 05:27 | 33.95036 | -118.25080 | 3287 ft | 206 kts | 259° |
| 2026-04-20 05:27 | 33.94818 | -118.26764 | 2940 ft | 200 kts | 263° |
| 2026-04-20 05:27 | 33.94689 | -118.28307 | 2589 ft | 171 kts | 265° |
| 2026-04-20 05:27 | 33.94578 | -118.29680 | 2121 ft | 156 kts | 263° |
| 2026-04-20 05:28 | 33.94457 | -118.30919 | 1850 ft | 147 kts | 262° |
| 2026-04-20 05:28 | 33.94332 | -118.32148 | 1636 ft | 148 kts | 264° |
| 2026-04-20 05:28 | 33.94223 | -118.33365 | 1433 ft | 147 kts | 263° |
| 2026-04-20 05:28 | 33.94094 | -118.34597 | 1139 ft | 150 kts | 262° |
| 2026-04-20 05:29 | 33.93961 | -118.35837 | 906 ft | 147 kts | 263° |
| 2026-04-20 05:29 | 33.93840 | -118.37053 | 677 ft | 145 kts | 263° |
| 2026-04-20 05:29 | 33.93726 | -118.38209 | 393 ft | 128 kts | 262° |
| 2026-04-20 05:29 | 33.93638 | -118.39195 | 127 ft | 105 kts | 262° |
| 2026-04-20 05:30 | 33.93566 | -118.39843 | 120 ft | 41 kts | 261° |
| 2026-04-20 05:30 | 33.93537 | -118.40038 | 119 ft | 14 kts | 257° |
| 2026-04-20 05:30 | 33.93505 | -118.40165 | 119 ft | 17 kts | 243° |
| 2026-04-20 05:30 | 33.93456 | -118.40200 | 120 ft | 10 kts | 169° |
| 2026-04-20 05:31 | 33.93425 | -118.40116 | 120 ft | 15 kts | 82° |
| 2026-04-20 05:31 | 33.93440 | -118.39977 | 120 ft | 19 kts | 83° |
| 2026-04-20 05:31 | 33.93450 | -118.39832 | 120 ft | 7 kts | 114° |
| 2026-04-20 05:31 | 33.93402 | -118.39813 | 120 ft | 10 kts | 177° |
| 2026-04-20 05:32 | 33.93375 | -118.39859 | 119 ft | 9 kts | 262° |
| 2026-04-20 05:32 | 33.93332 | -118.39894 | 120 ft | 10 kts | 175° |
| 2026-04-20 05:32 | 33.93277 | -118.39887 | 120 ft | 0 kts | 173° |